Terminal Aerodrome Forecast
Issued by NWS Cleveland, OH

Home | Current Version | Previous Version | Graphics & Text | Print | Product List | Glossary On
Versions: 1 2 3 4 5 6 7 8 9 10 11 12 13 14
000
FTUS41 KCLE 210539
TAFERI
TAF
KERI 210539Z 2106/2206 20014G20KT P6SM VCSH SCT045 BKN100
      TEMPO 2106/2109 BKN025
     FM210900 21012KT P6SM SCT015 OVC025
      TEMPO 2109/2112 BKN015
     FM211600 27014G22KT P6SM SCT020 OVC035
     FM220000 27012KT P6SM VCSH OVC020=

USA.gov is the U.S. government's official web portal to all federal, state and local government web resources and services.